createdAt,value
2022-12-17T00:02:45.494Z,18.80
2022-12-17T00:05:31.376Z,18.95
2022-12-17T00:08:18.436Z,19.08
2022-12-17T00:11:04.674Z,20.20
2022-12-17T00:13:50.842Z,17.05
2022-12-17T00:16:37.826Z,18.52
2022-12-17T00:19:24.115Z,18.25
2022-12-17T00:22:10.150Z,20.88
2022-12-17T00:24:56.492Z,19.75
2022-12-17T00:27:42.482Z,20.45
2022-12-17T00:30:32.254Z,22.50
2022-12-17T00:33:17.785Z,19.98
2022-12-17T00:36:27.055Z,20.50
2022-12-17T00:39:12.549Z,22.10
2022-12-17T00:41:58.946Z,20.85
2022-12-17T00:44:44.639Z,22.98
2022-12-17T00:47:31.067Z,23.77
2022-12-17T00:50:16.896Z,21.63
2022-12-17T00:53:03.004Z,21.90
2022-12-17T00:55:49.229Z,24.15
2022-12-17T00:58:35.257Z,24.52
2022-12-17T01:01:21.162Z,24.38
2022-12-17T01:04:07.415Z,23.80
2022-12-17T01:06:53.699Z,24.80
2022-12-17T01:09:40.119Z,21.40
2022-12-17T01:12:26.941Z,24.15
2022-12-17T01:15:13.976Z,21.33
2022-12-17T01:17:59.814Z,23.88
2022-12-17T01:20:46.044Z,26.85
2022-12-17T01:23:33.169Z,24.42
2022-12-17T01:26:21.507Z,27.75
2022-12-17T01:29:07.578Z,23.02
2022-12-17T01:31:53.725Z,26.77
2022-12-17T01:34:39.829Z,28.88
2022-12-17T01:37:26.166Z,27.25
2022-12-17T01:40:11.955Z,28.80
2022-12-17T01:43:05.613Z,25.75
2022-12-17T01:45:57.883Z,24.23
2022-12-17T01:48:50.863Z,27.63
2022-12-17T01:51:37.575Z,27.20
2022-12-17T01:54:24.321Z,28.48
2022-12-17T01:57:10.384Z,23.52
2022-12-17T02:00:19.916Z,22.35
2022-12-17T02:03:06.081Z,22.35
2022-12-17T02:06:11.010Z,26.38
2022-12-17T02:09:32.084Z,22.50
2022-12-17T02:12:47.220Z,19.83
2022-12-17T02:15:59.454Z,18.65
2022-12-17T02:18:55.067Z,20.30
2022-12-17T02:21:43.384Z,19.75
2022-12-17T02:24:49.425Z,20.45
2022-12-17T02:27:36.969Z,21.02
2022-12-17T02:30:25.880Z,19.60
2022-12-17T02:33:13.253Z,20.90
2022-12-17T02:36:13.911Z,22.33
2022-12-17T02:38:59.991Z,22.40
2022-12-17T02:41:58.313Z,22.42
2022-12-17T02:44:46.313Z,21.75
2022-12-17T02:47:33.972Z,22.85
2022-12-17T02:50:20.208Z,24.35
2022-12-17T02:53:07.673Z,24.10
2022-12-17T02:55:55.275Z,24.80
2022-12-17T02:58:41.771Z,22.67
2022-12-17T03:01:27.668Z,26.02
2022-12-17T03:04:18.663Z,26.20
2022-12-17T03:07:05.015Z,24.90
2022-12-17T03:09:51.605Z,26.60
2022-12-17T03:12:37.541Z,24.30
2022-12-17T03:15:23.899Z,25.92
2022-12-17T03:18:09.650Z,25.63
2022-12-17T03:20:55.681Z,25.95
2022-12-17T03:23:41.899Z,25.27
2022-12-17T03:26:28.022Z,24.83
2022-12-17T03:29:27.344Z,27.92
2022-12-17T03:32:13.375Z,28.33
2022-12-17T03:34:59.263Z,27.80
2022-12-17T03:37:45.351Z,27.73
2022-12-17T03:40:30.969Z,26.58
2022-12-17T03:43:16.983Z,40.65
2022-12-17T03:46:10.912Z,27.10
2022-12-17T03:48:57.451Z,28.58
2022-12-17T03:51:43.484Z,24.70
2022-12-17T03:54:29.741Z,24.00
2022-12-17T03:57:16.557Z,27.55
2022-12-17T04:00:02.772Z,26.88
2022-12-17T04:02:58.173Z,28.70
2022-12-17T04:05:44.123Z,27.42
2022-12-17T04:08:29.894Z,24.75
2022-12-17T04:11:15.950Z,21.38
2022-12-17T04:14:01.680Z,25.48
2022-12-17T04:16:47.937Z,23.45
2022-12-17T04:19:33.842Z,22.45
2022-12-17T04:22:20.063Z,23.23
2022-12-17T04:25:06.032Z,24.25
2022-12-17T04:27:52.292Z,25.50
2022-12-17T04:30:37.958Z,24.55
2022-12-17T04:33:24.070Z,24.27
2022-12-17T04:36:09.825Z,26.25
2022-12-17T04:38:56.028Z,25.40
2022-12-17T04:41:41.892Z,22.17
2022-12-17T04:44:28.156Z,20.65
2022-12-17T04:47:13.876Z,20.90
2022-12-17T04:49:59.889Z,20.02
2022-12-17T04:52:45.894Z,16.67
2022-12-17T04:55:31.983Z,18.02
2022-12-17T04:58:24.656Z,19.13
2022-12-17T05:01:12.170Z,18.55
2022-12-17T05:03:58.997Z,18.52
2022-12-17T05:06:45.048Z,18.67
2022-12-17T05:09:30.868Z,16.90
2022-12-17T05:12:17.033Z,19.17
2022-12-17T05:15:03.044Z,16.95
2022-12-17T05:17:49.308Z,18.25
2022-12-17T05:20:35.081Z,17.80
2022-12-17T05:23:25.951Z,16.92
2022-12-17T05:26:22.150Z,16.70
2022-12-17T05:29:14.010Z,16.92
2022-12-17T05:32:12.091Z,17.92
2022-12-17T05:34:58.471Z,14.65
2022-12-17T05:37:44.514Z,15.50
2022-12-17T05:40:31.018Z,14.40
2022-12-17T05:43:25.254Z,14.90
2022-12-17T05:46:11.533Z,13.65
2022-12-17T05:48:57.634Z,13.52
2022-12-17T05:51:43.649Z,12.32
2022-12-17T05:54:29.701Z,13.02
2022-12-17T05:57:16.007Z,12.00
2022-12-17T06:00:01.779Z,11.23
2022-12-17T06:02:58.384Z,10.98
2022-12-17T06:05:44.465Z,12.43
2022-12-17T06:08:30.721Z,11.98
2022-12-17T06:11:18.390Z,11.73
2022-12-17T06:14:05.775Z,9.45
2022-12-17T06:16:51.902Z,9.43
2022-12-17T06:19:37.967Z,11.57
2022-12-17T06:22:23.693Z,10.48
2022-12-17T06:25:09.858Z,10.70
2022-12-17T06:27:55.441Z,11.10
2022-12-17T06:30:41.562Z,11.88
2022-12-17T06:33:29.435Z,10.43
2022-12-17T06:36:22.216Z,10.68
2022-12-17T06:39:09.281Z,11.57
2022-12-17T06:42:00.564Z,10.48
2022-12-17T06:44:49.696Z,10.68
2022-12-17T06:47:36.409Z,10.52
2022-12-17T06:50:23.174Z,11.18
2022-12-17T06:53:22.985Z,10.20
2022-12-17T06:56:09.037Z,10.38
2022-12-17T06:58:55.163Z,10.27
2022-12-17T07:01:41.115Z,10.13
2022-12-17T07:04:27.585Z,10.88
2022-12-17T07:07:13.227Z,10.40
2022-12-17T07:09:59.321Z,10.20
2022-12-17T07:12:45.347Z,10.40
2022-12-17T07:15:31.877Z,11.15
2022-12-17T07:18:20.491Z,9.52
2022-12-17T07:21:07.730Z,9.90
2022-12-17T07:23:53.724Z,10.07
2022-12-17T07:26:50.425Z,9.70
2022-12-17T07:29:36.403Z,10.13
2022-12-17T07:32:22.454Z,9.85
2022-12-17T07:35:08.177Z,10.15
2022-12-17T07:37:54.211Z,9.00
2022-12-17T07:40:40.330Z,9.63
2022-12-17T07:43:33.225Z,8.38
2022-12-17T07:46:19.254Z,8.63
2022-12-17T07:49:25.667Z,8.85
2022-12-17T07:52:12.854Z,8.90
2022-12-17T07:54:59.375Z,8.25
2022-12-17T07:57:45.032Z,9.20
2022-12-17T08:00:31.589Z,9.00
2022-12-17T08:03:18.692Z,8.70
2022-12-17T08:06:04.697Z,9.05
2022-12-17T08:08:50.868Z,9.88
2022-12-17T08:11:37.115Z,10.30
2022-12-17T08:14:22.803Z,10.18
2022-12-17T08:17:08.899Z,10.75
2022-12-17T08:19:54.900Z,10.38
2022-12-17T08:22:40.844Z,10.82
2022-12-17T08:25:34.689Z,11.65
2022-12-17T08:28:48.985Z,11.52
2022-12-17T08:31:26.941Z,11.65
2022-12-17T08:34:12.959Z,10.90
2022-12-17T08:36:58.824Z,11.48
2022-12-17T08:39:44.907Z,11.43
2022-12-17T08:42:30.791Z,12.40
2022-12-17T08:45:16.906Z,11.63
2022-12-17T08:48:04.276Z,10.32
2022-12-17T08:50:50.737Z,11.80
2022-12-17T08:53:37.208Z,12.85
2022-12-17T08:56:23.908Z,11.52
2022-12-17T08:59:09.600Z,11.68
2022-12-17T09:01:55.897Z,12.25
2022-12-17T09:04:41.727Z,11.30
2022-12-17T09:07:27.951Z,10.82
2022-12-17T09:10:13.714Z,13.15
2022-12-17T09:13:04.683Z,13.32
2022-12-17T09:15:51.802Z,13.45
2022-12-17T09:18:41.407Z,14.82
2022-12-17T09:21:27.285Z,14.45
2022-12-17T09:24:13.350Z,15.50
2022-12-17T09:26:59.683Z,14.70
2022-12-17T09:29:45.877Z,16.17
2022-12-17T09:32:31.564Z,14.57
2022-12-17T09:35:17.713Z,15.45
2022-12-17T09:38:10.760Z,14.45
2022-12-17T09:40:58.555Z,13.43
2022-12-17T09:44:05.870Z,14.05
2022-12-17T09:47:02.093Z,13.93
2022-12-17T09:49:48.357Z,13.30
2022-12-17T09:52:51.487Z,13.15
2022-12-17T09:55:52.734Z,13.73
2022-12-17T09:58:44.260Z,13.47
2022-12-17T10:01:56.293Z,14.10
2022-12-17T10:04:53.545Z,12.57
2022-12-17T10:07:43.108Z,12.93
2022-12-17T10:10:34.628Z,13.57
2022-12-17T10:13:20.419Z,13.30
2022-12-17T10:16:06.614Z,13.80
2022-12-17T10:18:52.318Z,14.43
2022-12-17T10:21:38.871Z,14.10
2022-12-17T10:24:29.206Z,14.15
2022-12-17T10:27:16.162Z,13.02
2022-12-17T10:30:03.390Z,14.70
2022-12-17T10:32:49.715Z,15.00
2022-12-17T10:35:53.580Z,16.08
2022-12-17T10:38:46.286Z,15.13
2022-12-17T10:41:37.712Z,15.88
2022-12-17T10:44:48.703Z,17.58
2022-12-17T10:47:35.830Z,16.02
2022-12-17T10:50:28.102Z,15.32
2022-12-17T10:53:14.412Z,16.63
2022-12-17T10:56:15.107Z,16.80
2022-12-17T10:59:10.844Z,16.83
2022-12-17T11:02:01.158Z,16.83
2022-12-17T11:04:49.767Z,17.70
2022-12-17T11:07:57.432Z,17.58
2022-12-17T11:10:46.642Z,18.15
2022-12-17T11:13:48.180Z,17.02
2022-12-17T11:16:48.595Z,17.92
2022-12-17T11:19:57.132Z,16.77
2022-12-17T11:22:56.153Z,15.95
2022-12-17T11:25:52.880Z,16.13
2022-12-17T11:28:45.945Z,17.17
2022-12-17T11:31:31.609Z,17.92
2022-12-17T11:34:36.973Z,16.60
2022-12-17T11:37:30.824Z,17.15
2022-12-17T11:40:23.791Z,18.75
2022-12-17T11:43:34.191Z,17.13
2022-12-17T11:46:27.929Z,15.70
2022-12-17T11:49:28.847Z,15.52
2022-12-17T11:52:25.987Z,15.43
2022-12-17T11:55:33.982Z,15.40
2022-12-17T11:58:23.769Z,15.85
2022-12-17T12:01:41.270Z,15.20
2022-12-17T12:04:39.775Z,15.10
2022-12-17T12:07:44.744Z,16.13
2022-12-17T12:10:44.407Z,15.32
2022-12-17T12:13:37.684Z,15.32
2022-12-17T12:16:30.577Z,15.60
2022-12-17T12:19:36.656Z,15.63
2022-12-17T12:22:31.657Z,16.20
2022-12-17T12:25:43.752Z,17.77
2022-12-17T12:29:06.824Z,17.15
2022-12-17T12:32:14.128Z,16.27
2022-12-17T12:35:22.771Z,17.95
2022-12-17T12:38:08.977Z,18.23
2022-12-17T12:41:25.997Z,19.92
2022-12-17T12:44:18.365Z,21.40
2022-12-17T12:47:17.140Z,20.27
2022-12-17T12:50:09.290Z,20.75
2022-12-17T12:52:55.889Z,21.80
2022-12-17T12:55:42.153Z,21.63
2022-12-17T12:58:48.799Z,19.85
2022-12-17T13:01:35.591Z,20.83
2022-12-17T13:04:40.919Z,21.50
2022-12-17T13:07:21.599Z,21.48
2022-12-17T13:09:52.633Z,22.30
2022-12-17T13:12:25.048Z,21.67
2022-12-17T13:14:52.472Z,21.00
2022-12-17T13:17:46.265Z,23.02
2022-12-17T13:20:25.931Z,21.08
2022-12-17T13:23:06.466Z,20.77
2022-12-17T13:25:33.762Z,22.50
2022-12-17T13:28:01.890Z,23.90
2022-12-17T13:30:32.212Z,22.35
2022-12-17T13:33:23.697Z,24.17
2022-12-17T13:36:25.207Z,18.43
2022-12-17T13:39:08.157Z,23.47
2022-12-17T13:41:36.634Z,24.15
2022-12-17T13:44:22.507Z,23.55
2022-12-17T13:46:52.053Z,26.15
2022-12-17T13:49:22.689Z,26.45
2022-12-17T13:52:20.403Z,25.42
2022-12-17T13:54:48.272Z,25.20
2022-12-17T13:57:18.230Z,24.83
2022-12-17T13:59:54.468Z,25.88
2022-12-17T14:02:28.607Z,24.65
2022-12-17T14:05:07.243Z,24.92
2022-12-17T14:07:39.053Z,24.67
2022-12-17T14:10:16.892Z,24.60
2022-12-17T14:12:47.167Z,25.52
2022-12-17T14:15:25.598Z,26.63
2022-12-17T14:17:54.703Z,25.00
2022-12-17T14:20:25.531Z,24.13
2022-12-17T14:22:57.138Z,24.30
2022-12-17T14:25:29.568Z,23.83
2022-12-17T14:28:02.591Z,24.02
2022-12-17T14:30:33.290Z,22.38
2022-12-17T14:33:00.538Z,22.75
2022-12-17T14:35:32.015Z,22.95
2022-12-17T14:37:59.704Z,22.25
2022-12-17T14:40:27.861Z,20.65
2022-12-17T14:43:00.180Z,22.25
2022-12-17T14:45:29.148Z,20.67
2022-12-17T14:48:01.472Z,20.13
2022-12-17T14:50:33.382Z,20.25
2022-12-17T14:53:03.451Z,19.70
2022-12-17T14:55:31.399Z,18.90
2022-12-17T14:58:13.843Z,17.73
2022-12-17T15:00:48.537Z,19.20
2022-12-17T15:03:30.334Z,17.83
2022-12-17T15:08:36.251Z,18.00
2022-12-17T15:11:04.189Z,18.67
2022-12-17T15:13:31.701Z,17.25
2022-12-17T15:15:59.308Z,15.65
2022-12-17T15:18:26.603Z,16.05
2022-12-17T15:20:54.187Z,15.70
2022-12-17T15:23:23.273Z,14.65
2022-12-17T15:25:52.904Z,14.57
2022-12-17T15:28:21.082Z,15.02
2022-12-17T15:30:50.041Z,13.85
2022-12-17T15:33:17.460Z,14.60
2022-12-17T15:35:45.376Z,13.85
2022-12-17T15:38:13.180Z,14.80
2022-12-17T15:40:41.273Z,14.48
2022-12-17T15:43:14.042Z,14.02
2022-12-17T15:45:43.978Z,14.27
2022-12-17T15:48:12.864Z,14.02
2022-12-17T15:50:40.571Z,13.68
2022-12-17T15:53:09.140Z,14.73
2022-12-17T15:55:37.570Z,13.57
2022-12-17T15:58:05.844Z,13.45
2022-12-17T16:00:33.426Z,14.30
2022-12-17T16:03:01.047Z,14.50
2022-12-17T16:05:28.786Z,13.93
2022-12-17T16:07:59.216Z,14.57
2022-12-17T16:10:27.003Z,14.73
2022-12-17T16:12:54.195Z,14.77
2022-12-17T16:15:21.730Z,14.20
2022-12-17T16:17:48.907Z,15.15
2022-12-17T16:20:16.503Z,14.20
2022-12-17T16:22:44.414Z,15.25
2022-12-17T16:25:12.468Z,15.32
2022-12-17T16:27:39.706Z,14.02
2022-12-17T16:30:07.875Z,15.30
2022-12-17T16:32:36.757Z,15.75
2022-12-17T16:35:05.305Z,15.82
2022-12-17T16:37:32.483Z,15.75
2022-12-17T16:40:00.539Z,16.10
2022-12-17T16:42:28.432Z,15.80
2022-12-17T16:44:55.883Z,17.77
2022-12-17T16:47:23.258Z,15.77
2022-12-17T16:49:51.112Z,15.77
2022-12-17T16:52:18.508Z,16.10
2022-12-17T16:54:46.026Z,15.30
2022-12-17T16:57:13.238Z,15.63
2022-12-17T16:59:40.728Z,15.90
2022-12-17T17:02:15.561Z,17.38
2022-12-17T17:04:43.228Z,18.92
2022-12-17T17:07:10.588Z,17.30
2022-12-17T17:09:38.867Z,17.98
2022-12-17T17:12:07.625Z,17.02
2022-12-17T17:14:35.336Z,17.65
2022-12-17T17:17:02.666Z,15.90
2022-12-17T17:19:30.139Z,17.55
2022-12-17T17:21:57.365Z,16.98
2022-12-17T17:24:25.972Z,16.92
2022-12-17T17:26:55.645Z,19.33
2022-12-17T17:29:23.303Z,20.60
2022-12-17T17:32:09.861Z,19.33
2022-12-17T17:34:39.665Z,19.17
2022-12-17T17:37:06.878Z,18.60
2022-12-17T17:39:34.775Z,19.92
2022-12-17T17:42:02.143Z,19.05
2022-12-17T17:44:29.745Z,18.77
2022-12-17T17:46:57.245Z,19.30
2022-12-17T17:49:25.285Z,19.65
2022-12-17T17:52:08.810Z,18.27
2022-12-17T17:54:36.938Z,21.52
2022-12-17T17:57:04.254Z,19.75
2022-12-17T17:59:34.059Z,19.98
2022-12-17T18:02:02.923Z,21.00
2022-12-17T18:04:31.180Z,20.15
2022-12-17T18:09:46.657Z,20.23
2022-12-17T18:12:32.332Z,21.25
2022-12-17T18:15:17.440Z,21.63
2022-12-17T18:17:49.381Z,19.77
2022-12-17T18:20:17.653Z,20.77
2022-12-17T18:22:46.480Z,20.13
2022-12-17T18:25:16.422Z,18.75
2022-12-17T18:27:44.364Z,19.20
2022-12-17T18:30:12.553Z,19.67
2022-12-17T18:32:39.917Z,20.30
2022-12-17T18:35:08.074Z,21.17
2022-12-17T18:37:35.483Z,20.98
2022-12-17T18:40:06.421Z,19.30
2022-12-17T18:42:52.948Z,20.58
2022-12-17T18:45:20.483Z,20.23
2022-12-17T18:47:47.907Z,19.48
2022-12-17T18:50:15.507Z,19.33
2022-12-17T18:52:42.805Z,20.80
2022-12-17T18:55:10.374Z,19.20
2022-12-17T18:57:37.646Z,19.88
2022-12-17T19:00:06.796Z,21.08
2022-12-17T19:02:34.141Z,21.33
2022-12-17T19:05:02.177Z,20.40
2022-12-17T19:07:29.384Z,22.00
2022-12-17T19:09:56.859Z,20.40
2022-12-17T19:12:24.171Z,20.23
2022-12-17T19:14:51.699Z,19.75
2022-12-17T19:17:18.935Z,21.23
2022-12-17T19:19:47.525Z,20.55
2022-12-17T19:22:14.705Z,22.05
2022-12-17T19:24:42.238Z,18.35
2022-12-17T19:27:09.524Z,19.80
2022-12-17T19:29:37.031Z,18.63
2022-12-17T19:32:04.585Z,21.05
2022-12-17T19:34:32.505Z,20.15
2022-12-17T19:36:59.765Z,22.08
2022-12-17T19:39:27.328Z,21.42
2022-12-17T19:41:54.577Z,20.23
2022-12-17T19:44:22.255Z,19.92
2022-12-17T19:46:49.588Z,20.13
2022-12-17T19:49:17.554Z,19.60
2022-12-17T19:51:45.615Z,21.00
2022-12-17T19:54:15.376Z,22.83
2022-12-17T19:56:45.151Z,23.50
2022-12-17T19:59:13.449Z,22.95
2022-12-17T20:01:44.247Z,22.75
2022-12-17T20:04:13.489Z,22.25
2022-12-17T20:06:43.426Z,22.33
2022-12-17T20:09:11.764Z,24.50
2022-12-17T20:11:39.744Z,23.77
2022-12-17T20:14:11.599Z,22.90
2022-12-17T20:16:49.969Z,32.60
2022-12-17T20:19:25.450Z,22.90
2022-12-17T20:21:53.596Z,23.25
2022-12-17T20:24:30.820Z,22.15
2022-12-17T20:26:59.963Z,21.83
2022-12-17T20:29:27.878Z,22.73
2022-12-17T20:31:55.858Z,23.67
2022-12-17T20:34:24.413Z,23.67
2022-12-17T20:36:52.847Z,23.60
2022-12-17T20:39:26.190Z,22.40
2022-12-17T20:41:55.102Z,22.52
2022-12-17T20:44:22.763Z,22.88
2022-12-17T20:46:50.016Z,20.15
2022-12-17T20:49:17.551Z,22.67
2022-12-17T20:51:44.752Z,22.67
2022-12-17T20:54:12.408Z,23.65
2022-12-17T20:56:40.806Z,21.33
2022-12-17T20:59:13.194Z,20.45
2022-12-17T21:01:40.882Z,20.52
2022-12-17T21:04:12.026Z,21.27
2022-12-17T21:06:47.358Z,21.52
2022-12-17T21:09:18.603Z,21.92
2022-12-17T21:11:46.239Z,20.03
2022-12-17T21:14:16.414Z,20.73
2022-12-17T21:16:44.934Z,20.23
2022-12-17T21:19:18.056Z,21.25
2022-12-17T21:21:45.414Z,18.13
2022-12-17T21:24:13.204Z,19.05
2022-12-17T21:26:43.270Z,20.73
2022-12-17T21:29:11.211Z,19.90
2022-12-17T21:31:41.471Z,19.77
2022-12-17T21:34:12.960Z,20.38
2022-12-17T21:36:41.125Z,20.38
2022-12-17T21:39:10.047Z,18.70
2022-12-17T21:41:44.910Z,20.40
2022-12-17T21:44:15.292Z,19.45
2022-12-17T21:46:44.590Z,18.77
2022-12-17T21:49:18.227Z,19.15
2022-12-17T21:51:45.731Z,19.08
2022-12-17T21:54:19.005Z,17.27
2022-12-17T21:56:47.764Z,17.52
2022-12-17T21:59:15.673Z,16.98
2022-12-17T22:01:43.164Z,16.73
2022-12-17T22:04:10.795Z,16.48
2022-12-17T22:06:46.617Z,17.35
2022-12-17T22:09:42.376Z,14.77
2022-12-17T22:12:27.517Z,16.40
2022-12-17T22:14:55.098Z,17.13
2022-12-17T22:17:22.878Z,15.38
2022-12-17T22:19:50.538Z,18.45
2022-12-17T22:22:17.722Z,16.52
2022-12-17T22:24:45.230Z,16.30
2022-12-17T22:27:12.553Z,16.60
2022-12-17T22:29:58.600Z,17.13
2022-12-17T22:32:44.333Z,17.33
2022-12-17T22:36:26.387Z,18.42
2022-12-17T22:41:23.682Z,17.17
2022-12-17T22:44:36.714Z,17.92
2022-12-17T22:44:51.916Z,18.17
2022-12-17T22:46:23.335Z,17.70
2022-12-17T22:48:50.524Z,16.67
2022-12-17T22:51:25.604Z,18.92
2022-12-17T22:54:09.121Z,17.40
2022-12-17T22:57:16.883Z,17.80
2022-12-17T22:59:26.080Z,18.95
2022-12-17T23:01:53.783Z,18.73
2022-12-17T23:04:21.250Z,19.48
2022-12-17T23:06:48.791Z,19.17
2022-12-17T23:09:19.427Z,20.58
2022-12-17T23:11:48.888Z,20.80
2022-12-17T23:14:16.768Z,22.00
2022-12-17T23:16:45.242Z,20.48
2022-12-17T23:19:13.468Z,21.85
2022-12-17T23:21:41.053Z,21.02
2022-12-17T23:24:08.801Z,22.25
2022-12-17T23:26:37.599Z,21.00
2022-12-17T23:29:08.145Z,23.55
2022-12-17T23:31:38.459Z,23.08
2022-12-17T23:34:06.974Z,23.77
2022-12-17T23:36:37.038Z,22.38
2022-12-17T23:39:05.643Z,24.35
2022-12-17T23:41:33.375Z,23.67
2022-12-17T23:44:00.828Z,24.10
2022-12-17T23:46:30.498Z,22.70
2022-12-17T23:48:57.965Z,24.80
2022-12-17T23:51:26.196Z,23.65
2022-12-17T23:53:53.403Z,23.88
2022-12-17T23:56:26.245Z,24.25
2022-12-17T23:59:00.053Z,24.50
